createdAt,value
2019-02-25T00:00:21.226Z,23.10
2019-02-25T00:02:55.065Z,23.10
2019-02-25T00:05:27.575Z,23.10
2019-02-25T00:07:59.980Z,23.00
2019-02-25T00:10:32.646Z,23.00
2019-02-25T00:13:05.446Z,23.00
2019-02-25T00:15:38.017Z,23.00
2019-02-25T00:18:10.528Z,23.00
2019-02-25T00:20:43.001Z,23.00
2019-02-25T00:23:15.904Z,23.00
2019-02-25T00:25:48.401Z,23.00
2019-02-25T00:28:20.916Z,22.90
2019-02-25T00:30:53.393Z,22.90
2019-02-25T00:33:25.635Z,22.90
2019-02-25T00:35:58.041Z,22.90
2019-02-25T00:38:30.697Z,22.90
2019-02-25T00:41:03.280Z,22.80
2019-02-25T00:43:36.070Z,22.80
2019-02-25T00:46:08.448Z,22.80
2019-02-25T00:48:40.978Z,22.80
2019-02-25T00:51:13.555Z,22.80
2019-02-25T00:53:45.973Z,22.70
2019-02-25T00:56:18.388Z,22.70
2019-02-25T00:58:50.805Z,22.70
2019-02-25T01:01:23.328Z,22.70
2019-02-25T01:03:55.748Z,22.70
2019-02-25T01:06:28.230Z,22.70
2019-02-25T01:09:00.803Z,22.60
2019-02-25T01:11:34.588Z,22.60
2019-02-25T01:14:07.473Z,22.60
2019-02-25T01:16:40.847Z,22.60
2019-02-25T01:19:13.265Z,22.60
2019-02-25T01:21:46.923Z,22.50
2019-02-25T01:24:19.525Z,22.50
2019-02-25T01:26:52.182Z,22.50
2019-02-25T01:29:24.756Z,22.40
2019-02-25T01:31:57.142Z,22.40
2019-02-25T01:34:29.764Z,22.40
2019-02-25T01:37:02.454Z,22.40
2019-02-25T01:39:35.279Z,22.30
2019-02-25T01:42:09.018Z,22.30
2019-02-25T01:44:42.392Z,22.30
2019-02-25T01:47:14.889Z,22.30
2019-02-25T01:49:47.375Z,22.40
2019-02-25T01:52:19.772Z,22.40
2019-02-25T01:54:52.366Z,22.40
2019-02-25T01:57:25.409Z,22.40
2019-02-25T01:59:58.192Z,22.30
2019-02-25T02:02:31.987Z,22.30
2019-02-25T02:05:04.493Z,22.30
2019-02-25T02:07:36.872Z,22.20
2019-02-25T02:10:12.042Z,22.20
2019-02-25T02:12:44.502Z,22.20
2019-02-25T02:15:18.843Z,22.20
2019-02-25T02:17:52.654Z,22.20
2019-02-25T02:20:25.369Z,22.10
2019-02-25T02:22:57.754Z,22.20
2019-02-25T02:25:30.474Z,22.10
2019-02-25T02:28:02.904Z,22.10
2019-02-25T02:30:35.310Z,22.10
2019-02-25T02:33:08.150Z,22.10
2019-02-25T02:35:40.648Z,22.10
2019-02-25T02:38:13.270Z,22.10
2019-02-25T02:40:45.827Z,22.00
2019-02-25T02:43:18.300Z,22.00
2019-02-25T02:45:56.783Z,22.00
2019-02-25T02:48:34.439Z,22.00
2019-02-25T02:51:07.174Z,22.00
2019-02-25T02:53:40.191Z,22.00
2019-02-25T02:56:12.731Z,22.00
2019-02-25T02:58:45.207Z,22.00
2019-02-25T03:01:17.630Z,21.90
2019-02-25T03:03:51.206Z,21.90
2019-02-25T03:06:23.830Z,21.90
2019-02-25T03:08:56.218Z,21.90
2019-02-25T03:11:28.642Z,21.90
2019-02-25T03:14:01.022Z,21.80
2019-02-25T03:16:33.617Z,21.80
2019-02-25T03:19:06.110Z,21.80
2019-02-25T03:21:38.714Z,21.80
2019-02-25T03:24:11.283Z,21.80
2019-02-25T03:26:43.965Z,21.70
2019-02-25T03:29:16.378Z,21.70
2019-02-25T03:31:48.897Z,21.80
2019-02-25T03:34:21.455Z,21.70
2019-02-25T03:36:54.284Z,21.70
2019-02-25T03:39:27.033Z,21.80
2019-02-25T03:42:00.732Z,22.70
2019-02-25T03:44:33.201Z,23.60
2019-02-25T03:47:05.914Z,24.40
2019-02-25T03:49:39.396Z,25.00
2019-02-25T03:52:11.806Z,25.50
2019-02-25T03:54:44.370Z,25.90
2019-02-25T03:57:16.800Z,26.30
2019-02-25T03:59:49.257Z,26.70
2019-02-25T04:02:22.001Z,27.00
2019-02-25T04:04:54.491Z,27.30
2019-02-25T04:07:27.021Z,27.50
2019-02-25T04:09:59.556Z,27.80
2019-02-25T04:12:31.984Z,28.00
2019-02-25T04:15:04.820Z,27.60
2019-02-25T04:17:37.407Z,26.80
2019-02-25T04:20:12.625Z,26.20
2019-02-25T04:22:45.062Z,25.80
2019-02-25T04:25:17.446Z,25.40
2019-02-25T04:27:50.314Z,25.10
2019-02-25T04:30:22.904Z,24.80
2019-02-25T04:32:55.521Z,24.70
2019-02-25T04:35:27.985Z,24.50
2019-02-25T04:38:02.843Z,24.30
2019-02-25T04:40:34.223Z,24.20
2019-02-25T04:43:07.073Z,24.10
2019-02-25T04:45:39.582Z,24.00
2019-02-25T04:48:12.631Z,23.90
2019-02-25T04:50:45.161Z,23.80
2019-02-25T04:53:18.090Z,23.80
2019-02-25T04:55:50.462Z,23.70
2019-02-25T04:58:22.998Z,23.60
2019-02-25T05:00:55.404Z,23.50
2019-02-25T05:03:27.839Z,23.50
2019-02-25T05:06:00.313Z,23.40
2019-02-25T05:08:32.713Z,23.40
2019-02-25T05:11:05.172Z,23.20
2019-02-25T05:13:37.584Z,23.20
2019-02-25T05:16:10.198Z,23.10
2019-02-25T05:18:43.891Z,23.10
2019-02-25T05:21:16.443Z,23.00
2019-02-25T05:23:49.497Z,22.90
2019-02-25T05:26:22.160Z,22.90
2019-02-25T05:28:55.082Z,23.50
2019-02-25T05:31:27.449Z,23.70
2019-02-25T05:33:59.852Z,23.50
2019-02-25T05:36:32.365Z,23.30
2019-02-25T05:39:05.798Z,23.10
2019-02-25T05:41:38.191Z,23.10
2019-02-25T05:44:10.745Z,23.00
2019-02-25T05:46:43.116Z,22.90
2019-02-25T05:49:16.104Z,22.80
2019-02-25T05:51:48.462Z,22.80
2019-02-25T05:54:21.076Z,22.70
2019-02-25T05:56:53.544Z,22.60
2019-02-25T05:59:25.972Z,22.60
2019-02-25T06:01:58.345Z,22.60
2019-02-25T06:04:30.723Z,22.50
2019-02-25T06:07:03.224Z,22.40
2019-02-25T06:09:35.596Z,22.40
2019-02-25T06:12:08.063Z,22.80
2019-02-25T06:14:40.538Z,23.80
2019-02-25T06:17:13.075Z,24.60
2019-02-25T06:19:47.122Z,25.30
2019-02-25T06:22:19.591Z,25.80
2019-02-25T06:24:52.230Z,25.30
2019-02-25T06:27:30.636Z,24.70
2019-02-25T06:29:59.239Z,24.20
2019-02-25T06:32:31.912Z,23.90
2019-02-25T06:35:04.649Z,23.60
2019-02-25T06:37:37.106Z,23.50
2019-02-25T06:40:12.247Z,23.40
2019-02-25T06:42:44.751Z,23.20
2019-02-25T06:45:19.595Z,23.10
2019-02-25T06:47:51.990Z,23.10
2019-02-25T06:50:24.936Z,22.90
2019-02-25T06:52:57.512Z,22.90
2019-02-25T06:55:30.571Z,22.80
2019-02-25T06:58:03.032Z,22.70
2019-02-25T07:00:35.706Z,22.70
2019-02-25T07:03:08.099Z,22.60
2019-02-25T07:05:41.992Z,22.60
2019-02-25T07:08:15.848Z,22.50
2019-02-25T07:10:49.676Z,22.40
2019-02-25T07:13:29.215Z,22.40
2019-02-25T07:16:03.001Z,22.30
2019-02-25T07:18:49.053Z,22.30
2019-02-25T07:21:29.208Z,22.20
2019-02-25T07:24:12.066Z,22.20
2019-02-25T07:26:45.851Z,22.20
2019-02-25T07:29:28.510Z,22.10
2019-02-25T07:32:02.607Z,22.10
2019-02-25T07:34:38.858Z,22.10
2019-02-25T07:37:21.488Z,22.00
2019-02-25T07:39:57.763Z,22.00
2019-02-25T07:42:47.842Z,22.00
2019-02-25T07:45:27.686Z,21.90
2019-02-25T07:48:01.470Z,21.90
2019-02-25T07:50:35.393Z,21.90
2019-02-25T07:53:25.040Z,21.80
2019-02-25T07:56:15.171Z,21.80
2019-02-25T07:58:57.915Z,21.80
2019-02-25T08:01:32.796Z,21.70
2019-02-25T08:04:07.127Z,21.70
2019-02-25T08:06:47.053Z,21.70
2019-02-25T08:09:20.815Z,21.70
2019-02-25T08:11:57.361Z,21.60
2019-02-25T08:14:37.300Z,21.60
2019-02-25T08:17:11.032Z,21.60
2019-02-25T08:19:44.980Z,21.60
2019-02-25T08:22:34.929Z,21.60
2019-02-25T08:25:19.058Z,21.50
2019-02-25T08:28:01.358Z,21.50
2019-02-25T08:30:35.214Z,21.50
2019-02-25T08:33:25.714Z,21.50
2019-02-25T08:36:01.997Z,21.50
2019-02-25T08:38:55.251Z,21.40
2019-02-25T08:41:38.074Z,21.50
2019-02-25T08:44:17.683Z,21.40
2019-02-25T08:46:54.609Z,21.40
2019-02-25T08:49:31.558Z,21.40
2019-02-25T08:52:04.409Z,21.30
2019-02-25T08:54:36.920Z,21.40
2019-02-25T08:57:09.495Z,21.40
2019-02-25T08:59:41.962Z,21.40
2019-02-25T09:02:14.555Z,21.30
2019-02-25T09:04:46.921Z,21.30
2019-02-25T09:07:19.503Z,21.30
2019-02-25T09:09:52.006Z,21.30
2019-02-25T09:12:24.418Z,21.30
2019-02-25T09:14:56.980Z,21.30
2019-02-25T09:17:29.399Z,21.40
2019-02-25T09:20:01.770Z,22.10
2019-02-25T09:22:34.249Z,22.90
2019-02-25T09:25:08.494Z,23.60
2019-02-25T09:27:41.482Z,24.20
2019-02-25T09:30:18.367Z,24.00
2019-02-25T09:32:51.961Z,23.50
2019-02-25T09:35:24.594Z,23.00
2019-02-25T09:37:57.001Z,22.60
2019-02-25T09:40:29.463Z,22.40
2019-02-25T09:43:01.976Z,22.20
2019-02-25T09:45:34.367Z,22.10
2019-02-25T09:48:06.845Z,22.00
2019-02-25T09:50:39.465Z,21.90
2019-02-25T09:53:12.549Z,21.80
2019-02-25T09:55:44.915Z,21.70
2019-02-25T09:58:17.617Z,21.70
2019-02-25T10:00:50.072Z,21.60
2019-02-25T10:03:22.551Z,21.60
2019-02-25T10:05:54.915Z,21.50
2019-02-25T10:08:27.691Z,21.50
2019-02-25T10:11:00.662Z,21.50
2019-02-25T10:13:34.226Z,21.40
2019-02-25T10:16:06.798Z,21.40
2019-02-25T10:18:39.432Z,21.40
2019-02-25T10:21:11.897Z,21.40
2019-02-25T10:23:44.736Z,21.30
2019-02-25T10:26:17.437Z,21.30
2019-02-25T10:28:50.243Z,21.30
2019-02-25T10:31:23.621Z,21.60
2019-02-25T10:33:56.004Z,22.50
2019-02-25T10:36:28.558Z,23.30
2019-02-25T10:39:00.937Z,23.90
2019-02-25T10:41:34.634Z,24.40
2019-02-25T10:44:08.487Z,24.00
2019-02-25T10:46:42.859Z,23.40
2019-02-25T10:49:15.001Z,22.90
2019-02-25T10:51:48.635Z,22.60
2019-02-25T10:54:22.921Z,22.40
2019-02-25T10:56:55.921Z,22.20
2019-02-25T10:59:29.911Z,22.10
2019-02-25T11:02:03.259Z,22.00
2019-02-25T11:04:35.738Z,21.90
2019-02-25T11:07:09.675Z,21.80
2019-02-25T11:09:48.183Z,21.80
2019-02-25T11:12:21.569Z,21.70
2019-02-25T11:14:54.623Z,21.60
2019-02-25T11:17:26.969Z,21.50
2019-02-25T11:20:00.846Z,21.50
2019-02-25T11:22:34.491Z,21.40
2019-02-25T11:25:09.526Z,21.40
2019-02-25T11:27:42.582Z,21.40
2019-02-25T11:30:19.506Z,21.50
2019-02-25T11:32:55.078Z,22.40
2019-02-25T11:35:26.747Z,23.20
2019-02-25T11:38:01.586Z,23.90
2019-02-25T11:40:34.108Z,24.40
2019-02-25T11:43:08.395Z,24.00
2019-02-25T11:45:41.085Z,23.40
2019-02-25T11:48:13.468Z,23.00
2019-02-25T11:50:46.227Z,22.60
2019-02-25T11:53:18.786Z,22.40
2019-02-25T11:55:51.577Z,22.20
2019-02-25T11:58:24.357Z,22.10
2019-02-25T12:00:56.879Z,22.00
2019-02-25T12:03:29.514Z,21.90
2019-02-25T12:06:01.913Z,21.80
2019-02-25T12:08:34.287Z,21.80
2019-02-25T12:11:08.656Z,21.70
2019-02-25T12:13:40.601Z,21.60
2019-02-25T12:16:13.254Z,21.50
2019-02-25T12:18:45.598Z,21.50
2019-02-25T12:21:18.212Z,21.40
2019-02-25T12:23:50.666Z,22.20
2019-02-25T12:26:23.064Z,23.10
2019-02-25T12:28:55.459Z,23.80
2019-02-25T12:31:27.888Z,24.40
2019-02-25T12:34:00.282Z,24.30
2019-02-25T12:36:32.656Z,23.70
2019-02-25T12:39:05.385Z,23.20
2019-02-25T12:41:39.106Z,22.80
2019-02-25T12:44:11.485Z,22.50
2019-02-25T12:46:45.184Z,22.30
2019-02-25T12:49:17.551Z,22.20
2019-02-25T12:51:49.930Z,22.10
2019-02-25T12:54:22.467Z,22.00
2019-02-25T12:56:55.555Z,21.90
2019-02-25T12:59:28.074Z,21.80
2019-02-25T13:02:00.501Z,21.70
2019-02-25T13:04:32.961Z,21.70
2019-02-25T13:07:05.522Z,21.70
2019-02-25T13:09:37.919Z,22.60
2019-02-25T13:12:10.387Z,23.40
2019-02-25T13:14:42.950Z,23.00
2019-02-25T13:17:15.439Z,22.60
2019-02-25T13:19:47.805Z,22.30
2019-02-25T13:22:20.179Z,22.10
2019-02-25T13:24:52.774Z,22.00
2019-02-25T13:27:25.162Z,21.90
2019-02-25T13:29:57.525Z,22.00
2019-02-25T13:32:30.331Z,22.90
2019-02-25T13:35:02.861Z,23.80
2019-02-25T13:37:35.410Z,24.40
2019-02-25T13:40:10.395Z,24.30
2019-02-25T13:42:42.949Z,23.70
2019-02-25T13:45:17.315Z,23.30
2019-02-25T13:47:50.165Z,22.90
2019-02-25T13:50:22.766Z,22.60
2019-02-25T13:52:55.222Z,22.40
2019-02-25T13:55:28.243Z,22.30
2019-02-25T13:58:02.008Z,22.20
2019-02-25T14:00:34.490Z,22.10
2019-02-25T14:03:06.954Z,22.00
2019-02-25T14:05:39.444Z,22.10
2019-02-25T14:08:11.897Z,23.10
2019-02-25T14:10:44.803Z,23.80
2019-02-25T14:13:17.448Z,24.50
2019-02-25T14:15:50.084Z,25.00
2019-02-25T14:18:22.556Z,25.40
2019-02-25T14:20:54.951Z,25.50
2019-02-25T14:23:27.953Z,24.80
2019-02-25T14:26:00.443Z,24.20
2019-02-25T14:28:32.919Z,23.80
2019-02-25T14:31:05.983Z,23.40
2019-02-25T14:33:38.447Z,23.30
2019-02-25T14:36:12.285Z,24.20
2019-02-25T14:38:44.876Z,24.90
2019-02-25T14:41:18.548Z,25.50
2019-02-25T14:43:53.721Z,25.90
2019-02-25T14:46:26.848Z,26.30
2019-02-25T14:48:59.325Z,26.30
2019-02-25T14:51:31.783Z,26.50
2019-02-25T14:54:04.576Z,26.80
2019-02-25T14:56:37.374Z,27.10
2019-02-25T14:59:13.294Z,27.30
2019-02-25T15:01:44.254Z,27.60
2019-02-25T15:04:16.733Z,27.80
2019-02-25T15:06:49.384Z,27.40
2019-02-25T15:09:21.953Z,26.70
2019-02-25T15:11:55.901Z,26.00
2019-02-25T15:14:28.686Z,25.50
2019-02-25T15:17:01.349Z,25.10
2019-02-25T15:19:34.402Z,24.80
2019-02-25T15:22:07.808Z,24.60
2019-02-25T15:24:43.928Z,25.40
2019-02-25T15:27:14.277Z,26.20
2019-02-25T15:29:48.568Z,26.80
2019-02-25T15:32:21.306Z,27.20
2019-02-25T15:34:55.504Z,27.50
2019-02-25T15:37:27.753Z,27.90
2019-02-25T15:40:00.550Z,28.10
2019-02-25T15:42:37.204Z,28.30
2019-02-25T15:45:11.506Z,28.50
2019-02-25T15:47:44.907Z,28.50
2019-02-25T15:50:18.987Z,27.70
2019-02-25T15:52:51.482Z,27.00
2019-02-25T15:55:25.533Z,26.50
2019-02-25T15:57:57.866Z,26.10
2019-02-25T16:00:32.700Z,25.80
2019-02-25T16:03:06.146Z,25.60
2019-02-25T16:05:39.844Z,25.30
2019-02-25T16:08:16.194Z,25.20
2019-02-25T16:10:49.447Z,25.10
2019-02-25T16:13:21.213Z,24.90
2019-02-25T16:15:53.521Z,24.80
2019-02-25T16:18:27.853Z,24.70
2019-02-25T16:20:59.929Z,24.50
2019-02-25T16:23:34.152Z,24.40
2019-02-25T16:26:06.470Z,24.40
2019-02-25T16:28:39.902Z,24.30
2019-02-25T16:31:13.116Z,24.20
2019-02-25T16:33:47.098Z,24.20
2019-02-25T16:36:21.917Z,24.10
2019-02-25T16:38:56.206Z,24.00
2019-02-25T16:41:32.175Z,24.00
2019-02-25T16:44:04.563Z,23.90
2019-02-25T16:46:39.448Z,23.80
2019-02-25T16:49:11.099Z,24.00
2019-02-25T16:51:43.399Z,24.80
2019-02-25T16:54:18.872Z,25.60
2019-02-25T16:56:49.804Z,26.30
2019-02-25T16:59:24.428Z,26.80
2019-02-25T17:01:58.075Z,27.20
2019-02-25T17:04:31.837Z,26.70
2019-02-25T17:07:04.275Z,26.10
2019-02-25T17:09:38.794Z,25.60
2019-02-25T17:12:11.062Z,25.20
2019-02-25T17:14:43.404Z,24.90
2019-02-25T17:17:15.796Z,24.70
2019-02-25T17:19:48.145Z,24.50
2019-02-25T17:22:20.459Z,24.40
2019-02-25T17:24:54.268Z,24.30
2019-02-25T17:27:26.568Z,24.20
2019-02-25T17:29:59.843Z,24.10
2019-02-25T17:32:33.701Z,24.00
2019-02-25T17:35:07.457Z,24.00
2019-02-25T17:37:40.369Z,23.90
2019-02-25T17:40:15.134Z,23.90
2019-02-25T17:42:49.001Z,23.80
2019-02-25T17:45:25.105Z,23.70
2019-02-25T17:47:58.814Z,23.70
2019-02-25T17:50:34.581Z,23.60
2019-02-25T17:53:07.458Z,23.60
2019-02-25T17:55:40.536Z,23.50
2019-02-25T17:58:13.520Z,23.40
2019-02-25T18:00:47.538Z,23.40
2019-02-25T18:03:20.354Z,23.30
2019-02-25T18:05:53.659Z,23.30
2019-02-25T18:08:27.568Z,23.20
2019-02-25T18:11:00.178Z,23.20
2019-02-25T18:13:34.687Z,23.10
2019-02-25T18:16:08.573Z,23.10
2019-02-25T18:18:41.324Z,23.00
2019-02-25T18:21:14.842Z,23.00
2019-02-25T18:23:49.409Z,22.90
2019-02-25T18:26:21.473Z,22.90
2019-02-25T18:28:54.311Z,22.90
2019-02-25T18:31:27.158Z,22.80
2019-02-25T18:33:59.482Z,22.80
2019-02-25T18:36:33.229Z,22.80
2019-02-25T18:39:07.836Z,22.70
2019-02-25T18:41:41.379Z,22.70
2019-02-25T18:44:15.257Z,22.70
2019-02-25T18:46:49.855Z,22.60
2019-02-25T18:49:21.976Z,22.60
2019-02-25T18:51:54.508Z,22.60
2019-02-25T18:54:26.785Z,22.60
2019-02-25T18:57:00.752Z,22.50
2019-02-25T18:59:34.213Z,22.50
2019-02-25T19:02:07.973Z,22.50
2019-02-25T19:04:41.390Z,22.50
2019-02-25T19:07:14.864Z,22.40
2019-02-25T19:09:49.164Z,22.40
2019-02-25T19:12:21.414Z,22.40
2019-02-25T19:14:55.770Z,22.40
2019-02-25T19:17:29.369Z,22.40
2019-02-25T19:20:01.695Z,22.30
2019-02-25T19:22:35.592Z,22.30
2019-02-25T19:25:10.786Z,22.30
2019-02-25T19:27:44.450Z,22.30
2019-02-25T19:30:22.249Z,22.20
2019-02-25T19:32:55.046Z,22.30
2019-02-25T19:35:28.690Z,22.20
2019-02-25T19:38:03.661Z,22.20
2019-02-25T19:40:38.413Z,22.20
2019-02-25T19:43:09.899Z,22.10
2019-02-25T19:45:43.291Z,22.10
2019-02-25T19:48:19.474Z,22.10
2019-02-25T19:50:53.903Z,22.10
2019-02-25T19:53:25.555Z,22.10
2019-02-25T19:55:57.943Z,22.10
2019-02-25T19:58:33.499Z,22.10
2019-02-25T20:01:06.198Z,22.10
2019-02-25T20:03:40.043Z,22.00
2019-02-25T20:06:16.007Z,22.00
2019-02-25T20:08:48.746Z,22.00
2019-02-25T20:11:21.182Z,22.00
2019-02-25T20:13:53.473Z,22.00
2019-02-25T20:16:29.393Z,21.90
2019-02-25T20:19:00.299Z,22.00
2019-02-25T20:21:33.576Z,22.00
2019-02-25T20:24:10.127Z,21.90
2019-02-25T20:26:39.685Z,21.90
2019-02-25T20:29:12.773Z,21.90
2019-02-25T20:31:45.223Z,21.90
2019-02-25T20:34:20.516Z,21.90
2019-02-25T20:36:53.056Z,21.90
2019-02-25T20:39:26.398Z,21.90
2019-02-25T20:42:00.406Z,21.80
2019-02-25T20:44:34.793Z,21.80
2019-02-25T20:47:06.720Z,21.80
2019-02-25T20:49:39.306Z,21.80
2019-02-25T20:52:12.164Z,21.80
2019-02-25T20:54:47.300Z,21.80
2019-02-25T20:57:19.307Z,21.80
2019-02-25T20:59:53.241Z,21.80
2019-02-25T21:02:25.807Z,21.80
2019-02-25T21:04:58.408Z,21.70
2019-02-25T21:07:32.263Z,21.80
2019-02-25T21:10:06.051Z,21.70
2019-02-25T21:12:38.977Z,21.70
2019-02-25T21:15:19.721Z,21.70
2019-02-25T21:17:52.813Z,21.70
2019-02-25T21:20:28.879Z,21.70
2019-02-25T21:23:03.520Z,21.70
2019-02-25T21:25:36.755Z,21.70
2019-02-25T21:28:09.669Z,21.70
2019-02-25T21:30:44.158Z,21.60
2019-02-25T21:33:18.044Z,21.60
2019-02-25T21:35:50.711Z,21.60
2019-02-25T21:38:24.346Z,21.60
2019-02-25T21:40:56.927Z,21.60
2019-02-25T21:43:29.267Z,21.70
2019-02-25T21:46:01.796Z,21.60
2019-02-25T21:48:34.877Z,21.70
2019-02-25T21:51:10.081Z,21.80
2019-02-25T21:53:42.817Z,21.80
2019-02-25T21:56:16.828Z,21.80
2019-02-25T21:58:50.876Z,21.70
2019-02-25T22:01:23.984Z,21.80
2019-02-25T22:03:56.393Z,21.70
2019-02-25T22:06:29.630Z,21.70
2019-02-25T22:09:09.212Z,21.70
2019-02-25T22:11:42.794Z,21.70
2019-02-25T22:14:16.412Z,21.70
2019-02-25T22:16:50.436Z,21.70
2019-02-25T22:19:24.672Z,21.70
2019-02-25T22:21:58.090Z,21.70
2019-02-25T22:24:32.089Z,21.70
2019-02-25T22:27:04.923Z,21.60
2019-02-25T22:29:38.720Z,21.60
2019-02-25T22:32:11.174Z,21.60
2019-02-25T22:34:43.411Z,21.60
2019-02-25T22:37:17.493Z,21.50
2019-02-25T22:39:50.911Z,21.60
2019-02-25T22:42:25.272Z,21.60
2019-02-25T22:44:57.486Z,21.50
2019-02-25T22:47:29.740Z,21.60
2019-02-25T22:50:02.130Z,21.60
2019-02-25T22:52:35.573Z,21.50
2019-02-25T22:55:12.232Z,21.50
2019-02-25T22:57:45.939Z,21.50
2019-02-25T23:00:34.905Z,21.50
2019-02-25T23:03:11.150Z,21.50
2019-02-25T23:05:43.630Z,21.50
2019-02-25T23:08:18.051Z,21.50
2019-02-25T23:10:51.758Z,21.50
2019-02-25T23:13:25.785Z,21.50
2019-02-25T23:15:58.654Z,21.50
2019-02-25T23:18:30.981Z,21.50
2019-02-25T23:21:03.282Z,21.40
2019-02-25T23:23:37.741Z,21.40
2019-02-25T23:26:10.432Z,21.40
2019-02-25T23:28:43.500Z,21.40
2019-02-25T23:31:15.832Z,21.40
2019-02-25T23:33:48.903Z,21.40
2019-02-25T23:36:23.973Z,21.40
2019-02-25T23:38:57.153Z,21.40
2019-02-25T23:41:34.381Z,21.40
2019-02-25T23:44:04.222Z,21.40
2019-02-25T23:46:37.238Z,21.40
2019-02-25T23:49:10.304Z,21.30
2019-02-25T23:51:43.747Z,21.30
2019-02-25T23:54:18.455Z,21.30
2019-02-25T23:56:52.536Z,21.30
2019-02-25T23:59:26.437Z,21.30
